^^
Saratoga-Weather Station Historical Data
Daily Summary for March 31, 2020 Units:  Both    English   Metric
Daily Weekly Monthly Yearly Custom
  High: Low: Average:
Temperature: 100 °F /  37.8 °C 59.5 °F /  15.3 °C 79.7 °F /  26.5 °C
Dew Point: 59.2 °F /  15.1 °C 48.2 °F /  9 °C 52.7 °F /  11.5 °C
Humidity: 71% 20% 43%
Wind Speed: 9mph /  14.5km/h - 1mph /  1.6km/h
Wind Gust: 10mph /  16.1km/h - -
Wind- - ESE
Pressure: 30 in /  1015.9 hPa 29.9 in /  1011.2 hPa -
Precipitation: 0 in /  0.0 mm    
Historical Graphs
 
 
Tabular Data for March 31, 2020
Time Temperature Dew Point Pressure Wind Wind Speed Wind Gust Humidity Rainfall Rate (Hourly) solar
00:01 68.7 °F /  20.4 °C 49.3 °F /  9.6 °C 30in /  1015.6hPa Calm     50% 0in /  0.0mm 0 W/m2
00:06 68.5 °F /  20.3 °C 49.6 °F /  9.8 °C 30in /  1015.6hPa Calm     51% 0in /  0.0mm 0 W/m2
00:11 68.4 °F /  20.2 °C 49.5 °F /  9.7 °C 30in /  1015.6hPa Calm     51% 0in /  0.0mm 0 W/m2
00:16 67.8 °F /  19.9 °C 49.1 °F /  9.5 °C 30in /  1015.9hPa Calm     51% 0in /  0.0mm 0 W/m2
00:21 67.6 °F /  19.8 °C 48.9 °F /  9.4 °C 30in /  1015.9hPa Calm     51% 0in /  0.0mm 0 W/m2
00:26 67.5 °F /  19.7 °C 49.3 °F /  9.6 °C 30in /  1015.9hPa Calm     52% 0in /  0.0mm 0 W/m2
00:31 67.3 °F /  19.6 °C 49.1 °F /  9.5 °C 30in /  1015.9hPa Calm     52% 0in /  0.0mm 0 W/m2
00:36 66.9 °F /  19.4 °C 49.3 °F /  9.6 °C 30in /  1015.9hPa Calm   1mph /  1.6km/h 53% 0in /  0.0mm 0 W/m2
00:41 66.7 °F /  19.3 °C 49.1 °F /  9.5 °C 30in /  1015.9hPa Calm     53% 0in /  0.0mm 0 W/m2
00:47 66.6 °F /  19.2 °C 49.5 °F /  9.7 °C 30in /  1015.9hPa Calm     54% 0in /  0.0mm 0 W/m2
00:52 66.4 °F /  19.1 °C 49.3 °F /  9.6 °C 30in /  1015.9hPa Calm     54% 0in /  0.0mm 0 W/m2
00:57 66.2 °F /  19 °C 49.1 °F /  9.5 °C 30in /  1015.9hPa Calm     54% 0in /  0.0mm 0 W/m2
01:02 65.8 °F /  18.8 °C 48.2 °F /  9 °C 30in /  1015.9hPa Calm     53% 0in /  0.0mm 0 W/m2
01:07 65.7 °F /  18.7 °C 48.6 °F /  9.2 °C 30in /  1015.9hPa Calm     54% 0in /  0.0mm 0 W/m2
01:12 65.5 °F /  18.6 °C 48.4 °F /  9.1 °C 30in /  1015.9hPa Calm     54% 0in /  0.0mm 0 W/m2
01:17 65.3 °F /  18.5 °C 48.7 °F /  9.3 °C 30in /  1015.9hPa Calm     55% 0in /  0.0mm 0 W/m2
01:22 65.1 °F /  18.4 °C 49.1 °F /  9.5 °C 30in /  1015.9hPa Calm   1mph /  1.6km/h 56% 0in /  0.0mm 0 W/m2
01:27 64.9 °F /  18.3 °C 48.4 °F /  9.1 °C 30in /  1015.9hPa Calm     55% 0in /  0.0mm 0 W/m2
01:32 64.9 °F /  18.3 °C 48.9 °F /  9.4 °C 30in /  1015.9hPa Calm     56% 0in /  0.0mm 0 W/m2
01:37 64.8 °F /  18.2 °C 48.7 °F /  9.3 °C 30in /  1015.9hPa Calm     56% 0in /  0.0mm 0 W/m2
01:42 64.8 °F /  18.2 °C 48.7 °F /  9.3 °C 30in /  1015.9hPa Calm     56% 0in /  0.0mm 0 W/m2
01:47 64.6 °F /  18.1 °C 48.6 °F /  9.2 °C 30in /  1015.9hPa Calm   1mph /  1.6km/h 56% 0in /  0.0mm 0 W/m2
01:52 64.6 °F /  18.1 °C 49.5 °F /  9.7 °C 30in /  1015.9hPa Calm     58% 0in /  0.0mm 0 W/m2
01:57 64.4 °F /  18 °C 49.3 °F /  9.6 °C 30in /  1015.9hPa Calm   1mph /  1.6km/h 58% 0in /  0.0mm 0 W/m2
02:02 64.2 °F /  17.9 °C 49.1 °F /  9.5 °C 30in /  1015.9hPa Calm     58% 0in /  0.0mm 0 W/m2
02:07 64.2 °F /  17.9 °C 49.1 °F /  9.5 °C 30in /  1015.9hPa Calm     58% 0in /  0.0mm 0 W/m2
02:12 64.2 °F /  17.9 °C 48.7 °F /  9.3 °C 30in /  1015.9hPa WSW 0.9mph /  1.4km/h 1mph /  1.6km/h 57% 0in /  0.0mm 0 W/m2
02:17 64 °F /  17.8 °C 48.6 °F /  9.2 °C 30in /  1015.9hPa WSW 0.9mph /  1.4km/h 2mph /  3.2km/h 57% 0in /  0.0mm 0 W/m2
02:22 64.2 °F /  17.9 °C 48.7 °F /  9.3 °C 30in /  1015.9hPa WSW 0.9mph /  1.4km/h 2mph /  3.2km/h 57% 0in /  0.0mm 0 W/m2
02:27 64.2 °F /  17.9 °C 49.1 °F /  9.5 °C 30in /  1015.9hPa WSW 2mph /  3.2km/h 2mph /  3.2km/h 58% 0in /  0.0mm 0 W/m2
02:32 64.2 °F /  17.9 °C 49.1 °F /  9.5 °C 30in /  1015.9hPa Calm     58% 0in /  0.0mm 0 W/m2
02:37 64.2 °F /  17.9 °C 48.7 °F /  9.3 °C 30in /  1015.6hPa Calm     57% 0in /  0.0mm 0 W/m2
02:42 64.2 °F /  17.9 °C 49.1 °F /  9.5 °C 30in /  1015.9hPa Calm     58% 0in /  0.0mm 0 W/m2
02:47 64.2 °F /  17.9 °C 49.1 °F /  9.5 °C 30in /  1015.6hPa Calm     58% 0in /  0.0mm 0 W/m2
02:52 64 °F /  17.8 °C 48.9 °F /  9.4 °C 30in /  1015.6hPa Calm     58% 0in /  0.0mm 0 W/m2
02:57 64 °F /  17.8 °C 48.9 °F /  9.4 °C 30in /  1015.6hPa Calm     58% 0in /  0.0mm 0 W/m2
03:02 64 °F /  17.8 °C 49.5 °F /  9.7 °C 30in /  1015.6hPa Calm     59% 0in /  0.0mm 0 W/m2
03:07 64 °F /  17.8 °C 49.5 °F /  9.7 °C 30in /  1015.9hPa Calm     59% 0in /  0.0mm 0 W/m2
03:12 63.9 °F /  17.7 °C 49.3 °F /  9.6 °C 30in /  1015.9hPa Calm     59% 0in /  0.0mm 0 W/m2
03:18 63.7 °F /  17.6 °C 49.1 °F /  9.5 °C 30in /  1015.9hPa Calm     59% 0in /  0.0mm 0 W/m2
03:23 63.7 °F /  17.6 °C 49.5 °F /  9.7 °C 30in /  1015.9hPa Calm     60% 0in /  0.0mm 0 W/m2
03:28 63.3 °F /  17.4 °C 49.3 °F /  9.6 °C 30in /  1015.9hPa Calm     60% 0in /  0.0mm 0 W/m2
03:33 63.1 °F /  17.3 °C 49.1 °F /  9.5 °C 30in /  1015.9hPa Calm     60% 0in /  0.0mm 0 W/m2
03:38 63 °F /  17.2 °C 48.9 °F /  9.4 °C 30in /  1015.9hPa Calm     60% 0in /  0.0mm 0 W/m2
03:43 62.8 °F /  17.1 °C 49.1 °F /  9.5 °C 30in /  1015.9hPa Calm     61% 0in /  0.0mm 0 W/m2
03:48 62.6 °F /  17 °C 49.5 °F /  9.7 °C 30in /  1015.9hPa Calm     62% 0in /  0.0mm 0 W/m2
03:53 62.2 °F /  16.8 °C 49.1 °F /  9.5 °C 30in /  1015.9hPa Calm     62% 0in /  0.0mm 0 W/m2
03:58 62.1 °F /  16.7 °C 48.9 °F /  9.4 °C 30in /  1015.6hPa Calm     62% 0in /  0.0mm 0 W/m2
04:03 62.1 °F /  16.7 °C 49.3 °F /  9.6 °C 30in /  1015.6hPa Calm     63% 0in /  0.0mm 0 W/m2
04:08 61.9 °F /  16.6 °C 49.1 °F /  9.5 °C 30in /  1015.6hPa Calm     63% 0in /  0.0mm 0 W/m2
04:13 61.9 °F /  16.6 °C 49.1 °F /  9.5 °C 30in /  1015.6hPa WSW 0.9mph /  1.4km/h 1mph /  1.6km/h 63% 0in /  0.0mm 0 W/m2
04:18 62.1 °F /  16.7 °C 49.3 °F /  9.6 °C 30in /  1015.6hPa Calm     63% 0in /  0.0mm 0 W/m2
04:23 62.1 °F /  16.7 °C 49.3 °F /  9.6 °C 30in /  1015.6hPa Calm     63% 0in /  0.0mm 0 W/m2
04:28 61.9 °F /  16.6 °C 49.6 °F /  9.8 °C 30in /  1015.6hPa Calm     64% 0in /  0.0mm 0 W/m2
04:33 61.9 °F /  16.6 °C 49.6 °F /  9.8 °C 30in /  1015.6hPa Calm     64% 0in /  0.0mm 0 W/m2
04:38 61.7 °F /  16.5 °C 49.5 °F /  9.7 °C 30in /  1015.6hPa Calm     64% 0in /  0.0mm 0 W/m2
04:43 61.5 °F /  16.4 °C 49.3 °F /  9.6 °C 30in /  1015.6hPa Calm   2mph /  3.2km/h 64% 0in /  0.0mm 0 W/m2
04:48 61.7 °F /  16.5 °C 49.5 °F /  9.7 °C 30in /  1015.6hPa Calm     64% 0in /  0.0mm 0 W/m2
04:53 61.5 °F /  16.4 °C 49.3 °F /  9.6 °C 30in /  1015.6hPa WSW 0.9mph /  1.4km/h 2mph /  3.2km/h 64% 0in /  0.0mm 0 W/m2
04:58 61.9 °F /  16.6 °C 49.6 °F /  9.8 °C 30in /  1015.6hPa Calm     64% 0in /  0.0mm 0 W/m2
05:03 61.7 °F /  16.5 °C 49.5 °F /  9.7 °C 30in /  1015.6hPa Calm     64% 0in /  0.0mm 0 W/m2
05:08 61.5 °F /  16.4 °C 49.3 °F /  9.6 °C 30in /  1015.2hPa Calm     64% 0in /  0.0mm 0 W/m2
05:13 61.5 °F /  16.4 °C 49.6 °F /  9.8 °C 30in /  1015.6hPa Calm   1mph /  1.6km/h 65% 0in /  0.0mm 0 W/m2
05:18 61.5 °F /  16.4 °C 49.6 °F /  9.8 °C 30in /  1015.6hPa Calm     65% 0in /  0.0mm 0 W/m2
05:23 61.3 °F /  16.3 °C 49.5 °F /  9.7 °C 30in /  1015.6hPa Calm     65% 0in /  0.0mm 0 W/m2
05:28 61.3 °F /  16.3 °C 49.5 °F /  9.7 °C 30in /  1015.6hPa Calm   1mph /  1.6km/h 65% 0in /  0.0mm 0 W/m2
05:33 61.2 °F /  16.2 °C 49.6 °F /  9.8 °C 30in /  1015.6hPa Calm   1mph /  1.6km/h 66% 0in /  0.0mm 0 W/m2
05:38 61.2 °F /  16.2 °C 49.6 °F /  9.8 °C 30in /  1015.2hPa Calm     66% 0in /  0.0mm 0 W/m2
05:43 61 °F /  16.1 °C 49.5 °F /  9.7 °C 30in /  1015.2hPa Calm   1mph /  1.6km/h 66% 0in /  0.0mm 0 W/m2
05:48 60.8 °F /  16 °C 49.5 °F /  9.7 °C 30in /  1015.2hPa Calm     66% 0in /  0.0mm 0 W/m2
05:53 60.6 °F /  15.9 °C 49.6 °F /  9.8 °C 30in /  1015.2hPa Calm     67% 0in /  0.0mm 0 W/m2
05:58 60.4 °F /  15.8 °C 49.5 °F /  9.7 °C 30in /  1015.2hPa Calm     67% 0in /  0.0mm 0 W/m2
06:03 60.4 °F /  15.8 °C 49.8 °F /  9.9 °C 30in /  1015.2hPa Calm   1mph /  1.6km/h 68% 0in /  0.0mm 0 W/m2
06:08 60.3 °F /  15.7 °C 49.6 °F /  9.8 °C 30in /  1015.2hPa Calm     68% 0in /  0.0mm 0 W/m2
06:13 60.1 °F /  15.6 °C 49.5 °F /  9.7 °C 30in /  1015.2hPa Calm   1mph /  1.6km/h 68% 0in /  0.0mm 5 W/m2
06:18 59.9 °F /  15.5 °C 49.3 °F /  9.6 °C 30in /  1015.6hPa Calm     68% 0in /  0.0mm 7 W/m2
06:23 59.7 °F /  15.4 °C 49.5 °F /  9.7 °C 30in /  1015.6hPa Calm     69% 0in /  0.0mm 9 W/m2
06:28 59.5 °F /  15.3 °C 49.8 °F /  9.9 °C 30in /  1015.6hPa Calm     70% 0in /  0.0mm 11 W/m2
06:33 59.5 °F /  15.3 °C 49.8 °F /  9.9 °C 30in /  1015.6hPa Calm     70% 0in /  0.0mm 12 W/m2
06:38 59.5 °F /  15.3 °C 49.8 °F /  9.9 °C 30in /  1015.6hPa WSW 0.9mph /  1.4km/h 1mph /  1.6km/h 70% 0in /  0.0mm 14 W/m2
06:43 59.5 °F /  15.3 °C 49.8 °F /  9.9 °C 30in /  1015.6hPa Calm     70% 0in /  0.0mm 16 W/m2
06:48 59.5 °F /  15.3 °C 50.2 °F /  10.1 °C 30in /  1015.6hPa Calm     71% 0in /  0.0mm 18 W/m2
06:53 59.7 °F /  15.4 °C 50 °F /  10 °C 30in /  1015.6hPa Calm     70% 0in /  0.0mm 19 W/m2
06:58 59.7 °F /  15.4 °C 50 °F /  10 °C 30in /  1015.6hPa Calm     70% 0in /  0.0mm 21 W/m2
07:03 59.9 °F /  15.5 °C 50.2 °F /  10.1 °C 30in /  1015.6hPa Calm     70% 0in /  0.0mm 21 W/m2
07:08 60.1 °F /  15.6 °C 50.7 °F /  10.4 °C 30in /  1015.6hPa Calm     71% 0in /  0.0mm 23 W/m2
07:13 60.3 °F /  15.7 °C 50.9 °F /  10.5 °C 30in /  1015.6hPa WSW 0.9mph /  1.4km/h 1mph /  1.6km/h 71% 0in /  0.0mm 25 W/m2
07:18 60.6 °F /  15.9 °C 50.4 °F /  10.2 °C 30in /  1015.6hPa WSW 0.9mph /  1.4km/h 1mph /  1.6km/h 69% 0in /  0.0mm 25 W/m2
07:23 61.2 °F /  16.2 °C 50.2 °F /  10.1 °C 30in /  1015.6hPa WSW 2mph /  3.2km/h 2mph /  3.2km/h 67% 0in /  0.0mm 25 W/m2
07:28 61.9 °F /  16.6 °C 50.4 °F /  10.2 °C 30in /  1015.6hPa Calm     66% 0in /  0.0mm 26 W/m2
07:33 62.2 °F /  16.8 °C 50.7 °F /  10.4 °C 30in /  1015.6hPa Calm   2mph /  3.2km/h 66% 0in /  0.0mm 26 W/m2
07:38 62.8 °F /  17.1 °C 51.3 °F /  10.7 °C 30in /  1015.6hPa Calm     66% 0in /  0.0mm 28 W/m2
07:43 63.1 °F /  17.3 °C 51.3 °F /  10.7 °C 30in /  1015.6hPa Calm     65% 0in /  0.0mm 28 W/m2
07:49 63.5 °F /  17.5 °C 51.4 °F /  10.8 °C 30in /  1015.6hPa Calm   2mph /  3.2km/h 65% 0in /  0.0mm 28 W/m2
07:54 64.2 °F /  17.9 °C 50.9 °F /  10.5 °C 30in /  1015.9hPa ENE 2mph /  3.2km/h 2mph /  3.2km/h 62% 0in /  0.0mm 30 W/m2
07:59 64.8 °F /  18.2 °C 51.4 °F /  10.8 °C 30in /  1015.6hPa SE 0.9mph /  1.4km/h 2mph /  3.2km/h 62% 0in /  0.0mm 58 W/m2
08:04 65.1 °F /  18.4 °C 51.8 °F /  11 °C 30in /  1015.6hPa Calm   1mph /  1.6km/h 62% 0in /  0.0mm 91 W/m2
08:09 65.5 °F /  18.6 °C 51.6 °F /  10.9 °C 30in /  1015.9hPa Calm   2mph /  3.2km/h 61% 0in /  0.0mm 232 W/m2
08:14 66.2 °F /  19 °C 52 °F /  11.1 °C 30in /  1015.9hPa SE 0.9mph /  1.4km/h 2mph /  3.2km/h 60% 0in /  0.0mm 244 W/m2
08:20 67.3 °F /  19.6 °C 52 °F /  11.1 °C 30in /  1015.9hPa ESE 0.9mph /  1.4km/h 2mph /  3.2km/h 58% 0in /  0.0mm 227 W/m2
08:25 68.4 °F /  20.2 °C 52.5 °F /  11.4 °C 30in /  1015.6hPa Calm     57% 0in /  0.0mm 100 W/m2
08:30 68.9 °F /  20.5 °C 52.5 °F /  11.4 °C 30in /  1015.9hPa Calm     56% 0in /  0.0mm 40 W/m2
08:35 70.3 °F /  21.3 °C 52.9 °F /  11.6 °C 30in /  1015.9hPa ESE 0.9mph /  1.4km/h 2mph /  3.2km/h 54% 0in /  0.0mm 39 W/m2
08:45 72.1 °F /  22.3 °C 53.1 °F /  11.7 °C 30in /  1015.9hPa WNW 0.9mph /  1.4km/h 3mph /  4.8km/h 51% 0in /  0.0mm 39 W/m2
08:50 72.1 °F /  22.3 °C 52.5 °F /  11.4 °C 30in /  1015.6hPa Calm   1mph /  1.6km/h 50% 0in /  0.0mm 39 W/m2
08:55 72.3 °F /  22.4 °C 53.2 °F /  11.8 °C 30in /  1015.6hPa North 3mph /  4.8km/h 3mph /  4.8km/h 51% 0in /  0.0mm 40 W/m2
09:00 73.4 °F /  23 °C 53.1 °F /  11.7 °C 30in /  1015.6hPa Calm     49% 0in /  0.0mm 40 W/m2
09:05 74.1 °F /  23.4 °C 52.5 °F /  11.4 °C 30in /  1015.6hPa East 0.9mph /  1.4km/h 1mph /  1.6km/h 47% 0in /  0.0mm 42 W/m2
09:10 74.5 °F /  23.6 °C 52.9 °F /  11.6 °C 30in /  1015.6hPa North 0.9mph /  1.4km/h 1mph /  1.6km/h 47% 0in /  0.0mm 90 W/m2
09:15 74.5 °F /  23.6 °C 53.4 °F /  11.9 °C 30in /  1015.6hPa East 2mph /  3.2km/h 3mph /  4.8km/h 48% 0in /  0.0mm 288 W/m2
09:20 74.7 °F /  23.7 °C 53.1 °F /  11.7 °C 30in /  1015.6hPa Calm   2mph /  3.2km/h 47% 0in /  0.0mm 418 W/m2
09:25 75.4 °F /  24.1 °C 52.5 °F /  11.4 °C 30in /  1015.6hPa ENE 2mph /  3.2km/h 2mph /  3.2km/h 45% 0in /  0.0mm 431 W/m2
09:30 75.6 °F /  24.2 °C 52.7 °F /  11.5 °C 30in /  1015.6hPa East 0.9mph /  1.4km/h 3mph /  4.8km/h 45% 0in /  0.0mm 448 W/m2
09:35 75.9 °F /  24.4 °C 53.6 °F /  12 °C 30in /  1015.6hPa NE 2mph /  3.2km/h 4mph /  6.4km/h 46% 0in /  0.0mm 461 W/m2
09:41 76.5 °F /  24.7 °C 53.6 °F /  12 °C 30in /  1015.6hPa Calm   3mph /  4.8km/h 45% 0in /  0.0mm 475 W/m2
09:46 76.8 °F /  24.9 °C 53.2 °F /  11.8 °C 30in /  1015.6hPa NE 2mph /  3.2km/h 4mph /  6.4km/h 44% 0in /  0.0mm 485 W/m2
09:51 77.4 °F /  25.2 °C 53.8 °F /  12.1 °C 30in /  1015.6hPa ESE 2mph /  3.2km/h 3mph /  4.8km/h 44% 0in /  0.0mm 503 W/m2
09:56 77.5 °F /  25.3 °C 53.2 °F /  11.8 °C 30in /  1015.6hPa SW 0.9mph /  1.4km/h 2mph /  3.2km/h 43% 0in /  0.0mm 62 W/m2
10:01 77.9 °F /  25.5 °C 54.3 °F /  12.4 °C 30in /  1015.6hPa East 2mph /  3.2km/h 6mph /  9.7km/h 44% 0in /  0.0mm 49 W/m2
10:06 78.3 °F /  25.7 °C 54 °F /  12.2 °C 30in /  1015.6hPa ENE 2mph /  3.2km/h 3mph /  4.8km/h 43% 0in /  0.0mm 534 W/m2
10:11 78.6 °F /  25.9 °C 54.3 °F /  12.4 °C 30in /  1015.2hPa ESE 0.9mph /  1.4km/h 6mph /  9.7km/h 43% 0in /  0.0mm 552 W/m2
10:16 79 °F /  26.1 °C 54 °F /  12.2 °C 30in /  1015.6hPa East 0.9mph /  1.4km/h 3mph /  4.8km/h 42% 0in /  0.0mm 564 W/m2
10:21 79.2 °F /  26.2 °C 54.1 °F /  12.3 °C 30in /  1015.2hPa ESE 2mph /  3.2km/h 6mph /  9.7km/h 42% 0in /  0.0mm 578 W/m2
10:31 79.3 °F /  26.3 °C 54.9 °F /  12.7 °C 30in /  1015.2hPa East 0.9mph /  1.4km/h 5mph /  8km/h 43% 0in /  0.0mm 601 W/m2
10:36 79.9 °F /  26.6 °C 54.7 °F /  12.6 °C 30in /  1015.2hPa ENE 2mph /  3.2km/h 3mph /  4.8km/h 42% 0in /  0.0mm 615 W/m2
10:41 80.2 °F /  26.8 °C 54.3 °F /  12.4 °C 30in /  1015.2hPa NW 2.9mph /  4.7km/h 3mph /  4.8km/h 41% 0in /  0.0mm 626 W/m2
10:46 80.4 °F /  26.9 °C 54.5 °F /  12.5 °C 30in /  1015.2hPa ENE 2.9mph /  4.7km/h 5mph /  8km/h 41% 0in /  0.0mm 638 W/m2
10:51 80.8 °F /  27.1 °C 54.9 °F /  12.7 °C 30in /  1015.2hPa ENE 0.9mph /  1.4km/h 4mph /  6.4km/h 41% 0in /  0.0mm 647 W/m2
10:56 81.3 °F /  27.4 °C 55.4 °F /  13 °C 30in /  1015.2hPa ENE 2.9mph /  4.7km/h 4mph /  6.4km/h 41% 0in /  0.0mm 656 W/m2
11:02 81.9 °F /  27.7 °C 54.5 °F /  12.5 °C 30in /  1015.2hPa Calm   3mph /  4.8km/h 39% 0in /  0.0mm 670 W/m2
11:07 82.4 °F /  28 °C 55 °F /  12.8 °C 30in /  1015.2hPa ENE 2mph /  3.2km/h 4mph /  6.4km/h 39% 0in /  0.0mm 679 W/m2
11:12 83.1 °F /  28.4 °C 54.9 °F /  12.7 °C 30in /  1015.2hPa ENE 4mph /  6.4km/h 4mph /  6.4km/h 38% 0in /  0.0mm 687 W/m2
11:17 83.8 °F /  28.8 °C 54.9 °F /  12.7 °C 30in /  1015.2hPa SE 2.9mph /  4.7km/h 3mph /  4.8km/h 37% 0in /  0.0mm 696 W/m2
11:22 84.4 °F /  29.1 °C 53.8 °F /  12.1 °C 30in /  1015.2hPa SE 2.9mph /  4.7km/h 4mph /  6.4km/h 35% 0in /  0.0mm 710 W/m2
11:27 84.7 °F /  29.3 °C 54.9 °F /  12.7 °C 30in /  1015.2hPa Calm   2mph /  3.2km/h 36% 0in /  0.0mm 714 W/m2
11:32 85.3 °F /  29.6 °C 53.8 °F /  12.1 °C 30in /  1015.2hPa NE 2.9mph /  4.7km/h 5mph /  8km/h 34% 0in /  0.0mm 724 W/m2
11:42 86.4 °F /  30.2 °C 53.1 °F /  11.7 °C 30in /  1014.9hPa South 0.9mph /  1.4km/h 3mph /  4.8km/h 32% 0in /  0.0mm 745 W/m2
11:47 87.1 °F /  30.6 °C 52.7 °F /  11.5 °C 30in /  1014.9hPa SE 2mph /  3.2km/h 8mph /  12.9km/h 31% 0in /  0.0mm 749 W/m2
11:52 87.4 °F /  30.8 °C 53.1 °F /  11.7 °C 30in /  1014.9hPa Calm   4mph /  6.4km/h 31% 0in /  0.0mm 761 W/m2
11:57 87.4 °F /  30.8 °C 53.1 °F /  11.7 °C 30in /  1014.9hPa NE 2.9mph /  4.7km/h 8mph /  12.9km/h 31% 0in /  0.0mm 765 W/m2
12:03 87.8 °F /  31 °C 52.5 °F /  11.4 °C 30in /  1014.9hPa NE 2.9mph /  4.7km/h 3mph /  4.8km/h 30% 0in /  0.0mm 775 W/m2
12:08 88.3 °F /  31.3 °C 53.1 °F /  11.7 °C 30in /  1014.9hPa SE 0.9mph /  1.4km/h 5mph /  8km/h 30% 0in /  0.0mm 782 W/m2
12:13 89.1 °F /  31.7 °C 52.7 °F /  11.5 °C 30in /  1014.6hPa North 2.9mph /  4.7km/h 4mph /  6.4km/h 29% 0in /  0.0mm 788 W/m2
12:18 89.6 °F /  32 °C 54.1 °F /  12.3 °C 30in /  1014.6hPa SSW 2mph /  3.2km/h 3mph /  4.8km/h 30% 0in /  0.0mm 798 W/m2
12:23 90.1 °F /  32.3 °C 51.6 °F /  10.9 °C 30in /  1014.6hPa Calm   8mph /  12.9km/h 27% 0in /  0.0mm 800 W/m2
12:28 90.1 °F /  32.3 °C 52.7 °F /  11.5 °C 30in /  1014.6hPa ESE 0.9mph /  1.4km/h 1mph /  1.6km/h 28% 0in /  0.0mm 810 W/m2
12:33 90.5 °F /  32.5 °C 52.9 °F /  11.6 °C 30in /  1014.6hPa NNE 0.9mph /  1.4km/h 6mph /  9.7km/h 28% 0in /  0.0mm 812 W/m2
12:38 90.9 °F /  32.7 °C 52.3 °F /  11.3 °C 30in /  1014.6hPa East 6.9mph /  11.1km/h 9mph /  14.5km/h 27% 0in /  0.0mm 819 W/m2
12:43 90.9 °F /  32.7 °C 50.2 °F /  10.1 °C 30in /  1014.2hPa NE 2.9mph /  4.7km/h 4mph /  6.4km/h 25% 0in /  0.0mm 823 W/m2
12:48 91 °F /  32.8 °C 50.4 °F /  10.2 °C 30in /  1014.6hPa East 9mph /  14.5km/h 9mph /  14.5km/h 25% 0in /  0.0mm 828 W/m2
12:53 91 °F /  32.8 °C 49.3 °F /  9.6 °C 30in /  1014.2hPa NE 4mph /  6.4km/h 4mph /  6.4km/h 24% 0in /  0.0mm 831 W/m2
12:58 91.2 °F /  32.9 °C 52.5 °F /  11.4 °C 30in /  1014.2hPa NE 2.9mph /  4.7km/h 3mph /  4.8km/h 27% 0in /  0.0mm 837 W/m2
13:03 91.6 °F /  33.1 °C 49.6 °F /  9.8 °C 30in /  1014.2hPa North 0.9mph /  1.4km/h 3mph /  4.8km/h 24% 0in /  0.0mm 840 W/m2
13:08 91.8 °F /  33.2 °C 52 °F /  11.1 °C 30in /  1014.2hPa ENE 4mph /  6.4km/h 6mph /  9.7km/h 26% 0in /  0.0mm 846 W/m2
13:13 92.1 °F /  33.4 °C 51.3 °F /  10.7 °C 29.9in /  1013.9hPa NE 2.9mph /  4.7km/h 6mph /  9.7km/h 25% 0in /  0.0mm 846 W/m2
13:18 92.5 °F /  33.6 °C 50.4 °F /  10.2 °C 29.9in /  1013.9hPa SSE 2mph /  3.2km/h 3mph /  4.8km/h 24% 0in /  0.0mm 853 W/m2
13:23 92.8 °F /  33.8 °C 50.7 °F /  10.4 °C 29.9in /  1013.9hPa SE 2mph /  3.2km/h 4mph /  6.4km/h 24% 0in /  0.0mm 858 W/m2
13:28 93.2 °F /  34 °C 49.8 °F /  9.9 °C 29.9in /  1013.5hPa East 8.9mph /  14.3km/h 9mph /  14.5km/h 23% 0in /  0.0mm 858 W/m2
13:33 93.6 °F /  34.2 °C 50.2 °F /  10.1 °C 29.9in /  1013.9hPa ENE 2.9mph /  4.7km/h 4mph /  6.4km/h 23% 0in /  0.0mm 858 W/m2
13:38 93.4 °F /  34.1 °C 51.3 °F /  10.7 °C 29.9in /  1013.5hPa East 9mph /  14.5km/h 9mph /  14.5km/h 24% 0in /  0.0mm 860 W/m2
13:43 93.6 °F /  34.2 °C 51.3 °F /  10.7 °C 29.9in /  1013.5hPa ESE 4mph /  6.4km/h 7mph /  11.3km/h 24% 0in /  0.0mm 860 W/m2
13:48 93.6 °F /  34.2 °C 52.5 °F /  11.4 °C 29.9in /  1013.5hPa West 0.9mph /  1.4km/h 4mph /  6.4km/h 25% 0in /  0.0mm 861 W/m2
13:53 93.9 °F /  34.4 °C 51.6 °F /  10.9 °C 29.9in /  1013.5hPa Calm   4mph /  6.4km/h 24% 0in /  0.0mm 860 W/m2
13:58 94.3 °F /  34.6 °C 52 °F /  11.1 °C 29.9in /  1013.5hPa ENE 2mph /  3.2km/h 3mph /  4.8km/h 24% 0in /  0.0mm 861 W/m2
14:03 94.3 °F /  34.6 °C 52 °F /  11.1 °C 29.9in /  1013.2hPa East 4mph /  6.4km/h 6mph /  9.7km/h 24% 0in /  0.0mm 860 W/m2
14:08 94.6 °F /  34.8 °C 51.1 °F /  10.6 °C 29.9in /  1013.2hPa NNW 4mph /  6.4km/h 4mph /  6.4km/h 23% 0in /  0.0mm 856 W/m2
14:13 95 °F /  35 °C 52.5 °F /  11.4 °C 29.9in /  1013.2hPa ENE 0.9mph /  1.4km/h 6mph /  9.7km/h 24% 0in /  0.0mm 856 W/m2
14:18 95 °F /  35 °C 51.4 °F /  10.8 °C 29.9in /  1013.2hPa North 2mph /  3.2km/h 6mph /  9.7km/h 23% 0in /  0.0mm 854 W/m2
14:23 95 °F /  35 °C 51.4 °F /  10.8 °C 29.9in /  1013.2hPa NW 2mph /  3.2km/h 4mph /  6.4km/h 23% 0in /  0.0mm 853 W/m2
14:28 95.2 °F /  35.1 °C 50.4 °F /  10.2 °C 29.9in /  1013.2hPa West 2.9mph /  4.7km/h 6mph /  9.7km/h 22% 0in /  0.0mm 849 W/m2
14:33 95.2 °F /  35.1 °C 51.6 °F /  10.9 °C 29.9in /  1013.2hPa East 2mph /  3.2km/h 4mph /  6.4km/h 23% 0in /  0.0mm 849 W/m2
14:38 95.4 °F /  35.2 °C 52.9 °F /  11.6 °C 29.9in /  1013.2hPa ESE 2mph /  3.2km/h 6mph /  9.7km/h 24% 0in /  0.0mm 844 W/m2
14:43 95.5 °F /  35.3 °C 51.8 °F /  11 °C 29.9in /  1013.2hPa East 2mph /  3.2km/h 4mph /  6.4km/h 23% 0in /  0.0mm 838 W/m2
14:48 95.5 °F /  35.3 °C 51.8 °F /  11 °C 29.9in /  1013.2hPa East 2.9mph /  4.7km/h 4mph /  6.4km/h 23% 0in /  0.0mm 837 W/m2
14:53 95.7 °F /  35.4 °C 53.2 °F /  11.8 °C 29.9in /  1013.2hPa SSE 2mph /  3.2km/h 8mph /  12.9km/h 24% 0in /  0.0mm 837 W/m2
14:58 96.3 °F /  35.7 °C 52.5 °F /  11.4 °C 29.9in /  1013.2hPa SE 0.9mph /  1.4km/h 2mph /  3.2km/h 23% 0in /  0.0mm 826 W/m2
15:03 96.6 °F /  35.9 °C 55 °F /  12.8 °C 29.9in /  1012.9hPa ENE 0.9mph /  1.4km/h 2mph /  3.2km/h 25% 0in /  0.0mm 830 W/m2
15:08 97 °F /  36.1 °C 51.8 °F /  11 °C 29.9in /  1012.9hPa ESE 6mph /  9.7km/h 9mph /  14.5km/h 22% 0in /  0.0mm 823 W/m2
15:13 97.3 °F /  36.3 °C 52.2 °F /  11.2 °C 29.9in /  1012.9hPa ESE 2.9mph /  4.7km/h 3mph /  4.8km/h 22% 0in /  0.0mm 817 W/m2
15:18 97.3 °F /  36.3 °C 52.2 °F /  11.2 °C 29.9in /  1012.9hPa ENE 4mph /  6.4km/h 4mph /  6.4km/h 22% 0in /  0.0mm 809 W/m2
15:23 97.3 °F /  36.3 °C 53.4 °F /  11.9 °C 29.9in /  1012.9hPa ESE 2mph /  3.2km/h 6mph /  9.7km/h 23% 0in /  0.0mm 803 W/m2
15:28 97.5 °F /  36.4 °C 52.3 °F /  11.3 °C 29.9in /  1012.9hPa East 0.9mph /  1.4km/h 5mph /  8km/h 22% 0in /  0.0mm 800 W/m2
15:33 97.2 °F /  36.2 °C 53.2 °F /  11.8 °C 29.9in /  1012.9hPa East 0.9mph /  1.4km/h 3mph /  4.8km/h 23% 0in /  0.0mm 791 W/m2
15:38 97.3 °F /  36.3 °C 52.2 °F /  11.2 °C 29.9in /  1012.9hPa NE 2mph /  3.2km/h 4mph /  6.4km/h 22% 0in /  0.0mm 784 W/m2
15:43 97.9 °F /  36.6 °C 53.8 °F /  12.1 °C 29.9in /  1012.9hPa East 4mph /  6.4km/h 6mph /  9.7km/h 23% 0in /  0.0mm 780 W/m2
15:48 98.1 °F /  36.7 °C 54 °F /  12.2 °C 29.9in /  1012.5hPa ENE 2mph /  3.2km/h 3mph /  4.8km/h 23% 0in /  0.0mm 770 W/m2
15:53 98.2 °F /  36.8 °C 56.3 °F /  13.5 °C 29.9in /  1012.5hPa East 6.9mph /  11.1km/h 7mph /  11.3km/h 25% 0in /  0.0mm 763 W/m2
15:58 98.4 °F /  36.9 °C 54.3 °F /  12.4 °C 29.9in /  1012.5hPa ENE 2.9mph /  4.7km/h 4mph /  6.4km/h 23% 0in /  0.0mm 754 W/m2
16:03 98.2 °F /  36.8 °C 54.1 °F /  12.3 °C 29.9in /  1012.5hPa East 2mph /  3.2km/h 6mph /  9.7km/h 23% 0in /  0.0mm 749 W/m2
16:08 98.2 °F /  36.8 °C 54.1 °F /  12.3 °C 29.9in /  1012.5hPa ENE 2.9mph /  4.7km/h 4mph /  6.4km/h 23% 0in /  0.0mm 740 W/m2
16:13 98.2 °F /  36.8 °C 52.9 °F /  11.6 °C 29.9in /  1012.5hPa ENE 0.9mph /  1.4km/h 5mph /  8km/h 22% 0in /  0.0mm 729 W/m2
16:18 97.9 °F /  36.6 °C 52.5 °F /  11.4 °C 29.9in /  1012.5hPa East 4mph /  6.4km/h 7mph /  11.3km/h 22% 0in /  0.0mm 721 W/m2
16:23 97.9 °F /  36.6 °C 53.8 °F /  12.1 °C 29.9in /  1012.2hPa ESE 2.9mph /  4.7km/h 3mph /  4.8km/h 23% 0in /  0.0mm 712 W/m2
16:28 98.2 °F /  36.8 °C 55.2 °F /  12.9 °C 29.9in /  1012.2hPa North 0.9mph /  1.4km/h 10mph /  16.1km/h 24% 0in /  0.0mm 700 W/m2
16:33 98.2 °F /  36.8 °C 54.1 °F /  12.3 °C 29.9in /  1012.2hPa NNE 4mph /  6.4km/h 7mph /  11.3km/h 23% 0in /  0.0mm 689 W/m2
16:38 98.4 °F /  36.9 °C 55.4 °F /  13 °C 29.9in /  1012.2hPa East 2mph /  3.2km/h 8mph /  12.9km/h 24% 0in /  0.0mm 680 W/m2
16:43 99 °F /  37.2 °C 54.7 °F /  12.6 °C 29.9in /  1012.2hPa NE 0.9mph /  1.4km/h 2mph /  3.2km/h 23% 0in /  0.0mm 673 W/m2
16:48 98.8 °F /  37.1 °C 54.5 °F /  12.5 °C 29.9in /  1012.2hPa ENE 2mph /  3.2km/h 7mph /  11.3km/h 23% 0in /  0.0mm 666 W/m2
16:53 99 °F /  37.2 °C 54.7 °F /  12.6 °C 29.9in /  1012.2hPa East 4mph /  6.4km/h 4mph /  6.4km/h 23% 0in /  0.0mm 666 W/m2
16:58 99 °F /  37.2 °C 53.4 °F /  11.9 °C 29.9in /  1012.2hPa SSE 0.9mph /  1.4km/h 7mph /  11.3km/h 22% 0in /  0.0mm 656 W/m2
17:03 99.1 °F /  37.3 °C 53.6 °F /  12 °C 29.9in /  1012.2hPa West 0.9mph /  1.4km/h 2mph /  3.2km/h 22% 0in /  0.0mm 640 W/m2
17:08 99.3 °F /  37.4 °C 56.1 °F /  13.4 °C 29.9in /  1012.2hPa Calm   2mph /  3.2km/h 24% 0in /  0.0mm 635 W/m2
17:13 99.1 °F /  37.3 °C 54.9 °F /  12.7 °C 29.9in /  1012.2hPa ESE 2mph /  3.2km/h 3mph /  4.8km/h 23% 0in /  0.0mm 615 W/m2
17:18 99 °F /  37.2 °C 52.2 °F /  11.2 °C 29.9in /  1012.2hPa Calm   3mph /  4.8km/h 21% 0in /  0.0mm 599 W/m2
17:23 99 °F /  37.2 °C 54.7 °F /  12.6 °C 29.9in /  1012.2hPa South 0.9mph /  1.4km/h 3mph /  4.8km/h 23% 0in /  0.0mm 578 W/m2
17:28 99.1 °F /  37.3 °C 52.3 °F /  11.3 °C 29.9in /  1012.2hPa ESE 0.9mph /  1.4km/h 4mph /  6.4km/h 21% 0in /  0.0mm 566 W/m2
17:33 99.5 °F /  37.5 °C 52.7 °F /  11.5 °C 29.9in /  1012.2hPa ESE 0.9mph /  1.4km/h 3mph /  4.8km/h 21% 0in /  0.0mm 555 W/m2
17:38 99.7 °F /  37.6 °C 55.2 °F /  12.9 °C 29.9in /  1011.9hPa Calm   3mph /  4.8km/h 23% 0in /  0.0mm 541 W/m2
17:43 99.5 °F /  37.5 °C 54 °F /  12.2 °C 29.9in /  1011.9hPa WNW 2.9mph /  4.7km/h 4mph /  6.4km/h 22% 0in /  0.0mm 527 W/m2
17:48 99.1 °F /  37.3 °C 53.6 °F /  12 °C 29.9in /  1011.9hPa ENE 0.9mph /  1.4km/h 1mph /  1.6km/h 22% 0in /  0.0mm 513 W/m2
17:53 99 °F /  37.2 °C 53.4 °F /  11.9 °C 29.9in /  1011.9hPa ESE 0.9mph /  1.4km/h 7mph /  11.3km/h 22% 0in /  0.0mm 499 W/m2
17:58 99.3 °F /  37.4 °C 53.8 °F /  12.1 °C 29.9in /  1011.9hPa SSE 2mph /  3.2km/h 2mph /  3.2km/h 22% 0in /  0.0mm 489 W/m2
18:03 99.7 °F /  37.6 °C 54.1 °F /  12.3 °C 29.9in /  1011.9hPa ENE 0.9mph /  1.4km/h 7mph /  11.3km/h 22% 0in /  0.0mm 476 W/m2
18:08 99.7 °F /  37.6 °C 51.4 °F /  10.8 °C 29.9in /  1011.9hPa NE 0.9mph /  1.4km/h 3mph /  4.8km/h 20% 0in /  0.0mm 462 W/m2
18:13 99.7 °F /  37.6 °C 52.9 °F /  11.6 °C 29.9in /  1011.5hPa ENE 0.9mph /  1.4km/h 6mph /  9.7km/h 21% 0in /  0.0mm 446 W/m2
18:18 99.5 °F /  37.5 °C 52.7 °F /  11.5 °C 29.9in /  1011.5hPa West 0.9mph /  1.4km/h 2mph /  3.2km/h 21% 0in /  0.0mm 432 W/m2
18:23 99.5 °F /  37.5 °C 54 °F /  12.2 °C 29.9in /  1011.5hPa SE 0.9mph /  1.4km/h 3mph /  4.8km/h 22% 0in /  0.0mm 418 W/m2
18:28 99.7 °F /  37.6 °C 54.1 °F /  12.3 °C 29.9in /  1011.5hPa Calm   2mph /  3.2km/h 22% 0in /  0.0mm 408 W/m2
18:33 99.9 °F /  37.7 °C 52.9 °F /  11.6 °C 29.9in /  1011.5hPa Calm   1mph /  1.6km/h 21% 0in /  0.0mm 396 W/m2
18:38 100 °F /  37.8 °C 53.1 °F /  11.7 °C 29.9in /  1011.5hPa Calm   1mph /  1.6km/h 21% 0in /  0.0mm 380 W/m2
18:43 99.9 °F /  37.7 °C 54.1 °F /  12.3 °C 29.9in /  1011.5hPa NE 0.9mph /  1.4km/h 2mph /  3.2km/h 22% 0in /  0.0mm 364 W/m2
18:48 99.7 °F /  37.6 °C 54.1 °F /  12.3 °C 29.9in /  1011.2hPa SE 2mph /  3.2km/h 3mph /  4.8km/h 22% 0in /  0.0mm 334 W/m2
18:53 99.5 °F /  37.5 °C 54 °F /  12.2 °C 29.9in /  1011.5hPa ENE 0.9mph /  1.4km/h 2mph /  3.2km/h 22% 0in /  0.0mm 306 W/m2
18:58 99.5 °F /  37.5 °C 55.2 °F /  12.9 °C 29.9in /  1011.2hPa ESE 2mph /  3.2km/h 2mph /  3.2km/h 23% 0in /  0.0mm 274 W/m2
19:03 99.1 °F /  37.3 °C 57.2 °F /  14 °C 29.9in /  1011.2hPa East 2mph /  3.2km/h 2mph /  3.2km/h 25% 0in /  0.0mm 257 W/m2
19:08 99 °F /  37.2 °C 58.1 °F /  14.5 °C 29.9in /  1011.2hPa Calm   2mph /  3.2km/h 26% 0in /  0.0mm 236 W/m2
19:13 98.4 °F /  36.9 °C 56.5 °F /  13.6 °C 29.9in /  1011.2hPa Calm     25% 0in /  0.0mm 214 W/m2
19:18 98.1 °F /  36.7 °C 57.4 °F /  14.1 °C 29.9in /  1011.2hPa Calm   1mph /  1.6km/h 26% 0in /  0.0mm 197 W/m2
19:23 97.5 °F /  36.4 °C 59 °F /  15 °C 29.9in /  1011.2hPa Calm     28% 0in /  0.0mm 185 W/m2
19:28 97.2 °F /  36.2 °C 56.5 °F /  13.6 °C 29.9in /  1011.2hPa ESE 0.9mph /  1.4km/h 2mph /  3.2km/h 26% 0in /  0.0mm 183 W/m2
19:33 97.2 °F /  36.2 °C 58.6 °F /  14.8 °C 29.9in /  1011.2hPa ESE 0.9mph /  1.4km/h 2mph /  3.2km/h 28% 0in /  0.0mm 190 W/m2
19:38 96.6 °F /  35.9 °C 58.1 °F /  14.5 °C 29.9in /  1011.2hPa Calm   1mph /  1.6km/h 28% 0in /  0.0mm 192 W/m2
19:43 96.1 °F /  35.6 °C 58.6 °F /  14.8 °C 29.9in /  1011.2hPa Calm     29% 0in /  0.0mm 165 W/m2
19:48 95.4 °F /  35.2 °C 58.1 °F /  14.5 °C 29.9in /  1011.2hPa Calm   1mph /  1.6km/h 29% 0in /  0.0mm 127 W/m2
19:53 95.2 °F /  35.1 °C 58.8 °F /  14.9 °C 29.9in /  1011.2hPa SSE 0.9mph /  1.4km/h 2mph /  3.2km/h 30% 0in /  0.0mm 113 W/m2
19:58 94.5 °F /  34.7 °C 59.2 °F /  15.1 °C 29.9in /  1011.2hPa SSE 0.9mph /  1.4km/h 2mph /  3.2km/h 31% 0in /  0.0mm 69 W/m2
20:03 94.1 °F /  34.5 °C 57.9 °F /  14.4 °C 29.9in /  1011.2hPa SSE 0.9mph /  1.4km/h 2mph /  3.2km/h 30% 0in /  0.0mm 63 W/m2
20:08 93.6 °F /  34.2 °C 58.5 °F /  14.7 °C 29.9in /  1011.2hPa SSE 0.9mph /  1.4km/h 2mph /  3.2km/h 31% 0in /  0.0mm 70 W/m2
20:13 92.8 °F /  33.8 °C 58.6 °F /  14.8 °C 29.9in /  1011.2hPa SSE 2mph /  3.2km/h 2mph /  3.2km/h 32% 0in /  0.0mm 42 W/m2
20:18 92.1 °F /  33.4 °C 58.1 °F /  14.5 °C 29.9in /  1011.2hPa Calm   1mph /  1.6km/h 32% 0in /  0.0mm 65 W/m2
20:23 91.8 °F /  33.2 °C 57.7 °F /  14.3 °C 29.9in /  1011.2hPa Calm   2mph /  3.2km/h 32% 0in /  0.0mm 69 W/m2
20:28 91.6 °F /  33.1 °C 58.5 °F /  14.7 °C 29.9in /  1011.2hPa SSE 0.9mph /  1.4km/h 2mph /  3.2km/h 33% 0in /  0.0mm 60 W/m2
20:33 91 °F /  32.8 °C 58.8 °F /  14.9 °C 29.9in /  1011.2hPa Calm   1mph /  1.6km/h 34% 0in /  0.0mm 46 W/m2
20:38 90.5 °F /  32.5 °C 57.4 °F /  14.1 °C 29.9in /  1011.2hPa Calm     33% 0in /  0.0mm 26 W/m2
20:43 90 °F /  32.2 °C 58.6 °F /  14.8 °C 29.9in /  1011.2hPa SSE 0.9mph /  1.4km/h 1mph /  1.6km/h 35% 0in /  0.0mm 25 W/m2
20:48 89.4 °F /  31.9 °C 58.1 °F /  14.5 °C 29.9in /  1011.2hPa SSE 0.9mph /  1.4km/h 2mph /  3.2km/h 35% 0in /  0.0mm 19 W/m2
20:53 88.5 °F /  31.4 °C 58.1 °F /  14.5 °C 29.9in /  1011.2hPa SSE 0.9mph /  1.4km/h 2mph /  3.2km/h 36% 0in /  0.0mm 18 W/m2
20:58 88 °F /  31.1 °C 57.7 °F /  14.3 °C 29.9in /  1011.2hPa Calm     36% 0in /  0.0mm 14 W/m2
21:03 87.1 °F /  30.6 °C 57.6 °F /  14.2 °C 29.9in /  1011.5hPa Calm     37% 0in /  0.0mm 11 W/m2
21:08 86.2 °F /  30.1 °C 56.8 °F /  13.8 °C 29.9in /  1011.5hPa Calm     37% 0in /  0.0mm 7 W/m2
21:13 85.6 °F /  29.8 °C 57.2 °F /  14 °C 29.9in /  1011.5hPa Calm     38% 0in /  0.0mm 5 W/m2
21:18 85.3 °F /  29.6 °C 57.6 °F /  14.2 °C 29.9in /  1011.5hPa Calm     39% 0in /  0.0mm 0 W/m2
21:23 84.6 °F /  29.2 °C 56.8 °F /  13.8 °C 29.9in /  1011.5hPa Calm     39% 0in /  0.0mm 0 W/m2
21:28 83.8 °F /  28.8 °C 57 °F /  13.9 °C 29.9in /  1011.5hPa Calm     40% 0in /  0.0mm 0 W/m2
21:33 83.3 °F /  28.5 °C 56.5 °F /  13.6 °C 29.9in /  1011.5hPa Calm     40% 0in /  0.0mm 0 W/m2
21:38 82.8 °F /  28.2 °C 56.7 °F /  13.7 °C 29.9in /  1011.9hPa Calm   1mph /  1.6km/h 41% 0in /  0.0mm 0 W/m2
21:43 82.2 °F /  27.9 °C 56.8 °F /  13.8 °C 29.9in /  1011.9hPa Calm     42% 0in /  0.0mm 0 W/m2
21:48 81.9 °F /  27.7 °C 56.5 °F /  13.6 °C 29.9in /  1011.9hPa Calm     42% 0in /  0.0mm 0 W/m2
21:54 81.3 °F /  27.4 °C 56.7 °F /  13.7 °C 29.9in /  1011.9hPa Calm     43% 0in /  0.0mm 0 W/m2
21:59 81 °F /  27.2 °C 56.3 °F /  13.5 °C 29.9in /  1011.9hPa Calm     43% 0in /  0.0mm 0 W/m2
22:04 80.4 °F /  26.9 °C 55.9 °F /  13.3 °C 29.9in /  1011.5hPa SSE 0.9mph /  1.4km/h 1mph /  1.6km/h 43% 0in /  0.0mm 0 W/m2
22:09 80.1 °F /  26.7 °C 56.1 °F /  13.4 °C 29.9in /  1011.5hPa Calm     44% 0in /  0.0mm 0 W/m2
22:14 79.9 °F /  26.6 °C 56.7 °F /  13.7 °C 29.9in /  1011.5hPa Calm     45% 0in /  0.0mm 0 W/m2
22:19 79.3 °F /  26.3 °C 56.1 °F /  13.4 °C 29.9in /  1011.5hPa Calm     45% 0in /  0.0mm 0 W/m2
22:24 79 °F /  26.1 °C 55.8 °F /  13.2 °C 29.9in /  1011.5hPa Calm   1mph /  1.6km/h 45% 0in /  0.0mm 0 W/m2
22:29 78.8 °F /  26 °C 56.3 °F /  13.5 °C 29.9in /  1011.5hPa Calm     46% 0in /  0.0mm 0 W/m2
22:34 78.4 °F /  25.8 °C 56.5 °F /  13.6 °C 29.9in /  1011.5hPa Calm     47% 0in /  0.0mm 0 W/m2
22:39 78.1 °F /  25.6 °C 56.3 °F /  13.5 °C 29.9in /  1011.5hPa Calm     47% 0in /  0.0mm 0 W/m2
22:44 77.7 °F /  25.4 °C 55.9 °F /  13.3 °C 29.9in /  1011.5hPa Calm     47% 0in /  0.0mm 0 W/m2
22:49 77.5 °F /  25.3 °C 56.3 °F /  13.5 °C 29.9in /  1011.5hPa Calm     48% 0in /  0.0mm 0 W/m2
22:54 77.2 °F /  25.1 °C 56.5 °F /  13.6 °C 29.9in /  1011.9hPa Calm     49% 0in /  0.0mm 0 W/m2
22:59 77 °F /  25 °C 56.3 °F /  13.5 °C 29.9in /  1011.9hPa Calm     49% 0in /  0.0mm 0 W/m2
23:04 76.8 °F /  24.9 °C 56.8 °F /  13.8 °C 29.9in /  1011.9hPa Calm     50% 0in /  0.0mm 0 W/m2
23:09 76.6 °F /  24.8 °C 56.7 °F /  13.7 °C 29.9in /  1011.9hPa Calm     50% 0in /  0.0mm 0 W/m2
23:14 76.5 °F /  24.7 °C 56.5 °F /  13.6 °C 29.9in /  1011.9hPa Calm     50% 0in /  0.0mm 0 W/m2
23:19 76.3 °F /  24.6 °C 56.3 °F /  13.5 °C 29.9in /  1011.9hPa Calm     50% 0in /  0.0mm 0 W/m2
23:24 76.1 °F /  24.5 °C 56.7 °F /  13.7 °C 29.9in /  1011.9hPa Calm     51% 0in /  0.0mm 0 W/m2
23:29 75.9 °F /  24.4 °C 56.5 °F /  13.6 °C 29.9in /  1011.9hPa Calm     51% 0in /  0.0mm 0 W/m2
23:34 75.7 °F /  24.3 °C 56.3 °F /  13.5 °C 29.9in /  1011.9hPa Calm     51% 0in /  0.0mm 0 W/m2
23:39 75.6 °F /  24.2 °C 56.1 °F /  13.4 °C 29.9in /  1011.9hPa Calm     51% 0in /  0.0mm 0 W/m2
23:44 75.4 °F /  24.1 °C 55.9 °F /  13.3 °C 29.9in /  1012.2hPa Calm     51% 0in /  0.0mm 0 W/m2
23:49 75 °F /  23.9 °C 56.1 °F /  13.4 °C 29.9in /  1011.9hPa Calm     52% 0in /  0.0mm 0 W/m2
23:54 74.8 °F /  23.8 °C 56.1 °F /  13.4 °C 29.9in /  1011.9hPa Calm     52% 0in /  0.0mm 0 W/m2
23:59 74.7 °F /  23.7 °C 56.5 °F /  13.6 °C 29.9in /  1012.2hPa Calm     53% 0in /  0.0mm 0 W/m2
Juneau County Weather
Compliments of Weather Underground - 4 mb